Time,TemperatureF,DewpointF,PressureIn,WindDirection,WindDirectionDegrees,WindSpeedMPH,WindSpeedGustMPH,Humidity,HourlyPrecipIn,Conditions,Clouds,dailyrainin,SoftwareType,DateUTC
2013-02-26 00:02:00,34.5,25.0,30.18,NW,319,0.0,2.0,67,0.00,,,0.00,weatherlink.com 1.10,2013-02-26 05:02:00,
2013-02-26 00:17:00,34.5,24.0,30.18,NW,316,1.0,3.0,66,0.00,,,0.00,weatherlink.com 1.10,2013-02-26 05:17:00,
2013-02-26 00:32:00,34.5,24.0,30.18,North,4,0.0,3.0,66,0.00,,,0.00,weatherlink.com 1.10,2013-02-26 05:32:00,
2013-02-26 00:47:00,34.5,24.0,30.16,NNE,33,0.0,3.0,66,0.00,,,0.00,weatherlink.com 1.10,2013-02-26 05:47:00,
2013-02-26 01:02:00,34.4,24.0,30.15,NNE,32,3.0,4.0,65,0.00,,,0.00,weatherlink.com 1.10,2013-02-26 06:02:00,
2013-02-26 01:17:00,34.4,24.0,30.14,East,81,1.0,6.0,65,0.00,,,0.00,weatherlink.com 1.10,2013-02-26 06:17:00,
2013-02-26 01:32:00,34.3,24.0,30.14,NW,319,1.0,2.0,65,0.00,,,0.00,weatherlink.com 1.10,2013-02-26 06:32:00,
2013-02-26 01:47:00,34.4,24.0,30.14,West,279,0.0,3.0,65,0.00,,,0.00,weatherlink.com 1.10,2013-02-26 06:47:00,
2013-02-26 02:03:00,34.4,23.0,30.15,WSW,250,0.0,3.0,64,0.00,,,0.00,weatherlink.com 1.10,2013-02-26 07:03:00,
2013-02-26 02:18:00,34.4,23.0,30.14,NNE,20,0.0,2.0,64,0.00,,,0.00,weatherlink.com 1.10,2013-02-26 07:18:00,
2013-02-26 02:33:00,34.2,24.0,30.14,NNE,23,1.0,2.0,66,0.00,,,0.00,weatherlink.com 1.10,2013-02-26 07:33:00,
2013-02-26 02:48:00,33.7,25.0,30.12,North,350,0.0,5.0,71,0.00,,,0.00,weatherlink.com 1.10,2013-02-26 07:48:00,
2013-02-26 03:03:00,32.5,26.0,30.10,ENE,60,2.0,5.0,76,0.00,,,0.00,weatherlink.com 1.10,2013-02-26 08:03:00,
2013-02-26 03:18:00,31.8,27.0,30.11,WSW,253,0.0,2.0,81,0.00,,,0.00,weatherlink.com 1.10,2013-02-26 08:18:00,
2013-02-26 03:33:00,31.2,27.0,30.10,NW,316,0.0,6.0,84,0.00,,,0.00,weatherlink.com 1.10,2013-02-26 08:33:00,
2013-02-26 03:48:00,30.7,27.0,30.10,NNW,328,3.0,4.0,87,0.00,,,0.00,weatherlink.com 1.10,2013-02-26 08:48:00,
2013-02-26 04:03:00,30.5,28.0,30.09,NNE,26,0.0,5.0,90,0.01,,,0.01,weatherlink.com 1.10,2013-02-26 09:03:00,
2013-02-26 04:18:00,30.6,28.0,30.10,NE,41,0.0,6.0,91,0.03,,,0.03,weatherlink.com 1.10,2013-02-26 09:18:00,
2013-02-26 04:33:00,30.8,29.0,30.09,NW,319,0.0,3.0,92,0.04,,,0.04,weatherlink.com 1.10,2013-02-26 09:33:00,
2013-02-26 04:48:00,30.7,29.0,30.10,NE,46,2.0,5.0,92,0.04,,,0.04,weatherlink.com 1.10,2013-02-26 09:48:00,
2013-02-26 05:03:00,30.7,29.0,30.10,NE,39,2.0,8.0,92,0.03,,,0.04,weatherlink.com 1.10,2013-02-26 10:03:00,
2013-02-26 05:18:00,30.9,29.0,30.08,NW,321,0.0,6.0,93,0.01,,,0.04,weatherlink.com 1.10,2013-02-26 10:18:00,
2013-02-26 05:33:00,30.9,29.0,30.08,ENE,68,0.0,8.0,92,0.00,,,0.04,weatherlink.com 1.10,2013-02-26 10:33:00,
2013-02-26 05:48:00,30.9,29.0,30.07,South,187,1.0,7.0,92,0.00,,,0.04,weatherlink.com 1.10,2013-02-26 10:48:00,
2013-02-26 06:03:00,31.0,29.0,30.06,South,188,1.0,5.0,92,0.00,,,0.04,weatherlink.com 1.10,2013-02-26 11:03:00,
2013-02-26 06:18:00,31.2,29.0,30.06,South,187,0.0,3.0,93,0.00,,,0.04,weatherlink.com 1.10,2013-02-26 11:18:00,
2013-02-26 06:33:00,31.3,29.0,30.05,South,187,0.0,3.0,92,0.00,,,0.04,weatherlink.com 1.10,2013-02-26 11:33:00,
2013-02-26 06:48:00,31.3,30.0,30.04,South,187,2.0,3.0,93,0.00,,,0.04,weatherlink.com 1.10,2013-02-26 11:48:00,
2013-02-26 07:03:00,31.4,30.0,30.03,South,187,0.0,6.0,93,0.00,,,0.04,weatherlink.com 1.10,2013-02-26 12:03:00,
2013-02-26 07:18:00,31.4,30.0,30.02,South,187,0.0,4.0,93,0.00,,,0.04,weatherlink.com 1.10,2013-02-26 12:18:00,
2013-02-26 07:33:00,31.4,30.0,30.02,South,187,1.0,2.0,93,0.00,,,0.04,weatherlink.com 1.10,2013-02-26 12:33:00,
2013-02-26 07:48:00,31.5,30.0,30.02,South,187,0.0,4.0,93,0.00,,,0.04,weatherlink.com 1.10,2013-02-26 12:48:00,
2013-02-26 08:03:00,31.6,30.0,30.01,South,187,2.0,2.0,93,0.00,,,0.04,weatherlink.com 1.10,2013-02-26 13:03:00,
2013-02-26 08:18:00,31.7,30.0,29.99,South,187,1.0,3.0,93,0.00,,,0.04,weatherlink.com 1.10,2013-02-26 13:18:00,
2013-02-26 08:33:00,31.7,30.0,29.99,South,187,0.0,2.0,94,0.00,,,0.04,weatherlink.com 1.10,2013-02-26 13:33:00,
2013-02-26 08:48:00,31.7,30.0,29.97,South,187,0.0,3.0,94,0.00,,,0.04,weatherlink.com 1.10,2013-02-26 13:48:00,
2013-02-26 09:03:00,31.8,30.0,29.97,South,187,0.0,0.0,94,0.00,,,0.04,weatherlink.com 1.10,2013-02-26 14:03:00,
2013-02-26 09:18:00,32.0,31.0,29.95,South,188,0.0,0.0,94,0.00,,,0.04,weatherlink.com 1.10,2013-02-26 14:18:00,
2013-02-26 09:33:00,32.0,31.0,29.95,South,187,0.0,0.0,94,0.00,,,0.04,weatherlink.com 1.10,2013-02-26 14:33:00,
2013-02-26 09:49:00,32.1,31.0,29.93,South,187,0.0,0.0,94,0.00,,,0.04,weatherlink.com 1.10,2013-02-26 14:49:00,
2013-02-26 10:04:00,32.2,31.0,29.92,South,187,0.0,0.0,94,0.00,,,0.04,weatherlink.com 1.10,2013-02-26 15:04:00,
2013-02-26 10:19:00,32.2,31.0,29.90,South,187,0.0,0.0,94,0.00,,,0.04,weatherlink.com 1.10,2013-02-26 15:19:00,
2013-02-26 10:34:00,32.3,31.0,29.90,South,187,0.0,0.0,95,0.00,,,0.04,weatherlink.com 1.10,2013-02-26 15:34:00,
2013-02-26 10:49:00,32.4,31.0,29.89,South,187,0.0,0.0,95,0.00,,,0.04,weatherlink.com 1.10,2013-02-26 15:49:00,
2013-02-26 11:04:00,32.5,31.0,29.88,South,187,0.0,0.0,95,0.00,,,0.04,weatherlink.com 1.10,2013-02-26 16:04:00,
2013-02-26 11:19:00,32.5,31.0,29.88,South,187,0.0,0.0,95,0.00,,,0.04,weatherlink.com 1.10,2013-02-26 16:19:00,
2013-02-26 11:34:00,32.6,31.0,29.88,South,187,0.0,0.0,95,0.00,,,0.04,weatherlink.com 1.10,2013-02-26 16:34:00,
2013-02-26 11:49:00,32.6,31.0,29.86,South,187,0.0,0.0,95,0.00,,,0.04,weatherlink.com 1.10,2013-02-26 16:49:00,
2013-02-26 12:04:00,32.7,32.0,29.84,South,187,0.0,0.0,95,0.00,,,0.04,weatherlink.com 1.10,2013-02-26 17:04:00,
2013-02-26 12:19:00,32.7,32.0,29.82,South,187,0.0,0.0,95,0.00,,,0.04,weatherlink.com 1.10,2013-02-26 17:19:00,
2013-02-26 12:34:00,32.8,32.0,29.80,South,186,0.0,0.0,95,0.00,,,0.04,weatherlink.com 1.10,2013-02-26 17:34:00,
2013-02-26 12:49:00,32.8,32.0,29.79,South,187,0.0,0.0,95,0.00,,,0.04,weatherlink.com 1.10,2013-02-26 17:49:00,
2013-02-26 13:04:00,33.0,32.0,29.78,South,187,0.0,0.0,95,0.00,,,0.04,weatherlink.com 1.10,2013-02-26 18:04:00,
2013-02-26 13:19:00,33.2,32.0,29.77,South,187,2.0,2.0,95,0.00,,,0.04,weatherlink.com 1.10,2013-02-26 18:19:00,
2013-02-26 13:34:00,33.2,32.0,29.75,South,187,0.0,3.0,95,0.01,,,0.05,weatherlink.com 1.10,2013-02-26 18:34:00,
2013-02-26 13:49:00,33.3,32.0,29.74,WNW,283,1.0,2.0,95,0.01,,,0.05,weatherlink.com 1.10,2013-02-26 18:49:00,
2013-02-26 14:04:00,33.4,32.0,29.73,West,264,1.0,3.0,96,0.02,,,0.06,weatherlink.com 1.10,2013-02-26 19:04:00,
2013-02-26 14:19:00,33.7,33.0,29.73,West,277,0.0,1.0,96,0.05,,,0.09,weatherlink.com 1.10,2013-02-26 19:19:00,
2013-02-26 14:34:00,33.8,33.0,29.72,WSW,250,1.0,2.0,96,0.05,,,0.10,weatherlink.com 1.10,2013-02-26 19:34:00,
2013-02-26 14:49:00,34.3,33.0,29.72,ENE,64,0.0,2.0,96,0.10,,,0.15,weatherlink.com 1.10,2013-02-26 19:49:00,
2013-02-26 15:04:00,34.5,34.0,29.71,NW,307,0.0,2.0,96,0.11,,,0.17,weatherlink.com 1.10,2013-02-26 20:04:00,
2013-02-26 15:19:00,34.9,34.0,29.71,NE,48,1.0,1.0,96,0.09,,,0.18,weatherlink.com 1.10,2013-02-26 20:19:00,
2013-02-26 15:34:00,35.4,34.0,29.70,NW,305,0.0,2.0,96,0.07,,,0.18,weatherlink.com 1.10,2013-02-26 20:34:00,
2013-02-26 15:49:00,35.8,35.0,29.68,NNW,347,0.0,2.0,96,0.03,,,0.18,weatherlink.com 1.10,2013-02-26 20:49:00,
2013-02-26 16:04:00,36.4,35.0,29.69,WNW,283,0.0,1.0,96,0.02,,,0.19,weatherlink.com 1.10,2013-02-26 21:04:00,
2013-02-26 16:19:00,36.8,36.0,29.68,West,267,1.0,1.0,96,0.01,,,0.19,weatherlink.com 1.10,2013-02-26 21:19:00,
2013-02-26 16:34:00,37.2,36.0,29.67,WNW,291,0.0,1.0,96,0.01,,,0.19,weatherlink.com 1.10,2013-02-26 21:34:00,
2013-02-26 16:49:00,37.5,37.0,29.66,WNW,289,0.0,1.0,96,0.01,,,0.19,weatherlink.com 1.10,2013-02-26 21:49:00,
2013-02-26 17:04:00,37.5,37.0,29.66,WNW,290,0.0,1.0,96,0.00,,,0.19,weatherlink.com 1.10,2013-02-26 22:04:00,
2013-02-26 17:19:00,37.6,37.0,29.66,SW,228,0.0,1.0,96,0.00,,,0.19,weatherlink.com 1.10,2013-02-26 22:19:00,
2013-02-26 17:35:00,37.2,36.0,29.66,SW,231,0.0,3.0,96,0.01,,,0.20,weatherlink.com 1.10,2013-02-26 22:35:00,
2013-02-26 17:50:00,37.0,36.0,29.65,SW,225,1.0,1.0,96,0.01,,,0.20,weatherlink.com 1.10,2013-02-26 22:50:00,
2013-02-26 18:05:00,36.9,36.0,29.66,West,262,0.0,2.0,96,0.01,,,0.20,weatherlink.com 1.10,2013-02-26 23:05:00,
2013-02-26 18:20:00,37.1,36.0,29.66,SE,129,0.0,1.0,96,0.01,,,0.20,weatherlink.com 1.10,2013-02-26 23:20:00,
2013-02-26 18:35:00,37.1,36.0,29.67,South,190,0.0,1.0,96,0.00,,,0.20,weatherlink.com 1.10,2013-02-26 23:35:00,
2013-02-26 18:50:00,37.2,36.0,29.68,South,190,0.0,1.0,96,0.00,,,0.20,weatherlink.com 1.10,2013-02-26 23:50:00,
2013-02-26 19:05:00,37.3,36.0,29.68,South,190,0.0,0.0,96,0.00,,,0.20,weatherlink.com 1.10,2013-02-27 00:05:00,
2013-02-26 19:20:00,37.3,36.0,29.69,SSE,159,0.0,2.0,96,0.00,,,0.20,weatherlink.com 1.10,2013-02-27 00:20:00,
2013-02-26 19:35:00,37.3,36.0,29.69,SW,218,0.0,2.0,96,0.00,,,0.20,weatherlink.com 1.10,2013-02-27 00:35:00,
2013-02-26 19:50:00,37.3,36.0,29.69,SSW,198,0.0,1.0,96,0.00,,,0.20,weatherlink.com 1.10,2013-02-27 00:50:00,
2013-02-26 20:05:00,37.2,36.0,29.69,SSW,198,0.0,1.0,96,0.00,,,0.20,weatherlink.com 1.10,2013-02-27 01:05:00,
2013-02-26 20:20:00,37.2,36.0,29.69,SSW,198,0.0,1.0,96,0.00,,,0.20,weatherlink.com 1.10,2013-02-27 01:20:00,
2013-02-26 20:35:00,37.2,36.0,29.69,SSW,199,0.0,1.0,96,0.00,,,0.20,weatherlink.com 1.10,2013-02-27 01:35:00,
2013-02-26 20:50:00,37.2,36.0,29.69,SSW,200,0.0,1.0,96,0.00,,,0.20,weatherlink.com 1.10,2013-02-27 01:50:00,
2013-02-26 21:05:00,37.1,36.0,29.69,SSW,200,0.0,1.0,96,0.00,,,0.20,weatherlink.com 1.10,2013-02-27 02:05:00,
2013-02-26 21:35:00,37.0,36.0,29.70,SW,223,0.0,0.0,96,0.00,,,0.20,weatherlink.com 1.10,2013-02-27 02:35:00,
2013-02-26 21:50:00,36.9,36.0,29.69,SW,229,0.0,1.0,96,0.00,,,0.20,weatherlink.com 1.10,2013-02-27 02:50:00,
2013-02-26 22:05:00,36.8,36.0,29.69,SW,229,0.0,1.0,96,0.00,,,0.20,weatherlink.com 1.10,2013-02-27 03:05:00,
2013-02-26 22:20:00,36.8,36.0,29.68,SW,229,0.0,1.0,96,0.00,,,0.20,weatherlink.com 1.10,2013-02-27 03:20:00,
2013-02-26 22:35:00,36.8,36.0,29.69,SSW,204,0.0,2.0,96,0.00,,,0.20,weatherlink.com 1.10,2013-02-27 03:35:00,
2013-02-26 22:50:00,36.6,36.0,29.69,SSW,193,3.0,3.0,96,0.00,,,0.20,weatherlink.com 1.10,2013-02-27 03:50:00,
2013-02-26 23:05:00,36.0,35.0,29.69,SE,139,0.0,2.0,96,0.00,,,0.20,weatherlink.com 1.10,2013-02-27 04:05:00,
2013-02-26 23:20:00,35.9,35.0,29.68,SE,139,0.0,0.0,96,0.00,,,0.20,weatherlink.com 1.10,2013-02-27 04:20:00,
2013-02-26 23:35:00,35.9,35.0,29.69,SW,221,0.0,1.0,96,0.00,,,0.20,weatherlink.com 1.10,2013-02-27 04:35:00,
2013-02-26 23:50:00,35.9,35.0,29.69,SSW,212,0.0,1.0,96,0.00,,,0.20,weatherlink.com 1.10,2013-02-27 04:50:00,